Fairmount, IL (61841)

5:20 AM CDT on July 27, 2016 (GMT -0500)
Ogden, IL | | Change Station

Elev 669 ft 40.13 °N, 87.94 °W | Updated 4 minutes ago

Clear
Clear
62.6 °F
Feels Like 62.6 °F
N
0.0
Wind Variable Wind from WNW

Today
High -- | Low -- °F
--% Chance of Precip.
Yesterday
High -- | Low -- °F
Precip. -- in
Pressure 30.00 in
Visibility 4.0 miles
Clouds Clear
Dew Point 62 °F
Humidity 99%
Rainfall 0.00 in
Snow Depth Not available.
5:45 AM 8:09 PM
Last Quarter, 45% visible
METAR KDNV 271015Z AUTO 00000KT 4SM BR CLR 17/17 A3000 RMK AO2 T01720171
Pressure 30.00 in
Visibility 4.0 miles
Clouds Clear
Dew Point 62 °F
Humidity 99%
Rainfall 0.00 in
Snow Depth Not available.
5:45 AM 8:09 PM
Last Quarter, 45% visible
METAR KDNV 271015Z AUTO 00000KT 4SM BR CLR 17/17 A3000 RMK AO2 T01720171

10-Day Weather Forecast

Almanac

Astronomy

Jul. 27, 2016 Rise Set
Actual Time
Civil Twilight
Nautical Twilight
Astronomical Twilight
Moon
Length of Visible Light
Length of Day
Tomorrow will be .
, % of the Moon is Illuminated

Today's Extremes

State Highs State Lows

Community

WunderPhotos

Upload Photos

1,927,816 photos uploaded!

WunderBlog® & News

Nearby

Air Quality

  Air Quality AQ Index Pollutant
Not available.

Snow Depth

Station Depth Elevation

Earthquake Activity

City Distance Mag. Time & Date
Minimum magnitude displayed is 2.5.

Coastal Water Temperatures

Place Temperature

Stations

Nearby Weather Stations

Station Location Temp. Windchill Dew Point Humidity Wind Precip. Elev Updated Type
                   

Watches & Warnings

There are currently no watches in effect.